sensor_id;sensor_type;location;lat;lon;timestamp;P1;durP1;ratioP1;P2;durP2;ratioP2
53674;SDS011;39574;50.534;8.500;2023-02-28T00:04:18;6.4;;;3.6;;
53674;SDS011;39574;50.534;8.500;2023-02-28T00:09:17;6.6;;;3.8;;
53674;SDS011;39574;50.534;8.500;2023-02-28T00:14:15;6.5;;;3.8;;
53674;SDS011;39574;50.534;8.500;2023-02-28T00:19:14;6.7;;;3.9;;
53674;SDS011;39574;50.534;8.500;2023-02-28T00:24:12;6.1;;;3.7;;
53674;SDS011;39574;50.534;8.500;2023-02-28T00:29:11;6.6;;;3.9;;
53674;SDS011;39574;50.534;8.500;2023-02-28T00:34:09;7.1;;;4.0;;
53674;SDS011;39574;50.534;8.500;2023-02-28T00:39:08;7.2;;;4.0;;
53674;SDS011;39574;50.534;8.500;2023-02-28T00:44:07;7.4;;;4.0;;
53674;SDS011;39574;50.534;8.500;2023-02-28T00:49:05;7.6;;;3.8;;
53674;SDS011;39574;50.534;8.500;2023-02-28T00:54:04;7.2;;;3.9;;
53674;SDS011;39574;50.534;8.500;2023-02-28T00:59:02;6.8;;;3.6;;
53674;SDS011;39574;50.534;8.500;2023-02-28T01:04:01;6.3;;;3.4;;
53674;SDS011;39574;50.534;8.500;2023-02-28T01:08:59;5.6;;;3.3;;
53674;SDS011;39574;50.534;8.500;2023-02-28T01:13:58;5.4;;;3.2;;
53674;SDS011;39574;50.534;8.500;2023-02-28T01:18:56;5.8;;;3.3;;
53674;SDS011;39574;50.534;8.500;2023-02-28T01:23:56;5.6;;;3.3;;
53674;SDS011;39574;50.534;8.500;2023-02-28T01:28:54;5.6;;;3.4;;
53674;SDS011;39574;50.534;8.500;2023-02-28T01:33:52;6.5;;;3.4;;
53674;SDS011;39574;50.534;8.500;2023-02-28T01:38:51;6.9;;;3.6;;
53674;SDS011;39574;50.534;8.500;2023-02-28T01:43:54;6.7;;;3.6;;
53674;SDS011;39574;50.534;8.500;2023-02-28T01:48:49;6.2;;;3.7;;
53674;SDS011;39574;50.534;8.500;2023-02-28T01:53:47;5.8;;;3.7;;
53674;SDS011;39574;50.534;8.500;2023-02-28T01:58:45;5.9;;;3.8;;
53674;SDS011;39574;50.534;8.500;2023-02-28T02:03:43;6.4;;;3.9;;
53674;SDS011;39574;50.534;8.500;2023-02-28T02:08:42;6.6;;;4.1;;
53674;SDS011;39574;50.534;8.500;2023-02-28T02:13:45;6.3;;;4.0;;
53674;SDS011;39574;50.534;8.500;2023-02-28T02:18:42;6.6;;;3.8;;
53674;SDS011;39574;50.534;8.500;2023-02-28T02:28:57;6.1;;;3.7;;
53674;SDS011;39574;50.534;8.500;2023-02-28T02:33:41;6.3;;;3.8;;
53674;SDS011;39574;50.534;8.500;2023-02-28T02:38:33;6.2;;;3.8;;
53674;SDS011;39574;50.534;8.500;2023-02-28T02:43:32;6.2;;;3.7;;
53674;SDS011;39574;50.534;8.500;2023-02-28T02:48:31;6.1;;;3.7;;
53674;SDS011;39574;50.534;8.500;2023-02-28T02:53:29;6.3;;;3.8;;
53674;SDS011;39574;50.534;8.500;2023-02-28T02:58:29;6.4;;;3.8;;
53674;SDS011;39574;50.534;8.500;2023-02-28T03:03:26;6.9;;;4.0;;
53674;SDS011;39574;50.534;8.500;2023-02-28T03:08:25;7.2;;;4.2;;
53674;SDS011;39574;50.534;8.500;2023-02-28T03:13:30;7.0;;;4.0;;
53674;SDS011;39574;50.534;8.500;2023-02-28T03:18:22;6.7;;;4.1;;
53674;SDS011;39574;50.534;8.500;2023-02-28T03:23:21;7.0;;;4.1;;
53674;SDS011;39574;50.534;8.500;2023-02-28T03:28:21;7.0;;;4.2;;
53674;SDS011;39574;50.534;8.500;2023-02-28T03:33:18;7.0;;;4.3;;
53674;SDS011;39574;50.534;8.500;2023-02-28T03:38:17;6.8;;;4.3;;
53674;SDS011;39574;50.534;8.500;2023-02-28T03:43:15;7.0;;;4.3;;
53674;SDS011;39574;50.534;8.500;2023-02-28T03:48:13;7.5;;;4.6;;
53674;SDS011;39574;50.534;8.500;2023-02-28T03:53:12;7.5;;;4.6;;
53674;SDS011;39574;50.534;8.500;2023-02-28T03:58:11;7.3;;;4.8;;
53674;SDS011;39574;50.534;8.500;2023-02-28T04:03:08;7.4;;;4.8;;
53674;SDS011;39574;50.534;8.500;2023-02-28T04:08:07;6.6;;;4.4;;
53674;SDS011;39574;50.534;8.500;2023-02-28T04:13:06;6.4;;;4.3;;
53674;SDS011;39574;50.534;8.500;2023-02-28T04:18:04;6.6;;;4.3;;
53674;SDS011;39574;50.534;8.500;2023-02-28T04:23:03;7.0;;;4.6;;
53674;SDS011;39574;50.534;8.500;2023-02-28T04:28:01;7.3;;;4.6;;
53674;SDS011;39574;50.534;8.500;2023-02-28T04:33:00;7.8;;;4.7;;
53674;SDS011;39574;50.534;8.500;2023-02-28T04:37:58;8.6;;;4.9;;
53674;SDS011;39574;50.534;8.500;2023-02-28T04:42:57;8.8;;;4.9;;
53674;SDS011;39574;50.534;8.500;2023-02-28T04:47:55;8.2;;;4.8;;
53674;SDS011;39574;50.534;8.500;2023-02-28T04:52:54;8.2;;;4.9;;
53674;SDS011;39574;50.534;8.500;2023-02-28T04:57:52;8.0;;;4.8;;
53674;SDS011;39574;50.534;8.500;2023-02-28T05:02:51;8.3;;;4.8;;
53674;SDS011;39574;50.534;8.500;2023-02-28T05:07:49;9.1;;;4.8;;
53674;SDS011;39574;50.534;8.500;2023-02-28T05:12:48;8.8;;;4.7;;
53674;SDS011;39574;50.534;8.500;2023-02-28T05:17:46;8.3;;;4.6;;
53674;SDS011;39574;50.534;8.500;2023-02-28T05:22:45;7.9;;;4.6;;
53674;SDS011;39574;50.534;8.500;2023-02-28T05:27:43;7.9;;;4.6;;
53674;SDS011;39574;50.534;8.500;2023-02-28T05:32:42;7.3;;;4.3;;
53674;SDS011;39574;50.534;8.500;2023-02-28T05:37:41;6.7;;;4.3;;
53674;SDS011;39574;50.534;8.500;2023-02-28T05:42:39;6.5;;;4.2;;
53674;SDS011;39574;50.534;8.500;2023-02-28T05:47:37;7.0;;;4.3;;
53674;SDS011;39574;50.534;8.500;2023-02-28T05:52:36;6.9;;;4.2;;
53674;SDS011;39574;50.534;8.500;2023-02-28T05:57:35;6.7;;;4.1;;
53674;SDS011;39574;50.534;8.500;2023-02-28T06:02:33;7.1;;;3.9;;
53674;SDS011;39574;50.534;8.500;2023-02-28T06:07:32;6.7;;;3.9;;
53674;SDS011;39574;50.534;8.500;2023-02-28T06:12:30;6.4;;;3.6;;
53674;SDS011;39574;50.534;8.500;2023-02-28T06:17:28;6.6;;;3.6;;
53674;SDS011;39574;50.534;8.500;2023-02-28T06:22:27;6.4;;;3.6;;
53674;SDS011;39574;50.534;8.500;2023-02-28T06:27:26;6.5;;;3.7;;
53674;SDS011;39574;50.534;8.500;2023-02-28T06:32:24;6.7;;;3.7;;
53674;SDS011;39574;50.534;8.500;2023-02-28T06:37:23;6.9;;;3.8;;
53674;SDS011;39574;50.534;8.500;2023-02-28T06:42:21;7.2;;;4.0;;
53674;SDS011;39574;50.534;8.500;2023-02-28T06:47:20;7.6;;;4.3;;
53674;SDS011;39574;50.534;8.500;2023-02-28T06:52:18;7.5;;;4.1;;
53674;SDS011;39574;50.534;8.500;2023-02-28T06:57:17;7.2;;;4.0;;
53674;SDS011;39574;50.534;8.500;2023-02-28T07:02:15;7.5;;;4.1;;
53674;SDS011;39574;50.534;8.500;2023-02-28T07:07:14;6.8;;;4.0;;
53674;SDS011;39574;50.534;8.500;2023-02-28T07:12:12;6.9;;;4.1;;
53674;SDS011;39574;50.534;8.500;2023-02-28T07:17:11;7.0;;;3.9;;
53674;SDS011;39574;50.534;8.500;2023-02-28T07:22:09;7.9;;;4.0;;
53674;SDS011;39574;50.534;8.500;2023-02-28T07:27:08;8.1;;;4.3;;
53674;SDS011;39574;50.534;8.500;2023-02-28T07:32:06;8.0;;;4.4;;
53674;SDS011;39574;50.534;8.500;2023-02-28T07:37:05;8.6;;;4.7;;
53674;SDS011;39574;50.534;8.500;2023-02-28T07:42:04;8.5;;;4.7;;
53674;SDS011;39574;50.534;8.500;2023-02-28T07:47:02;8.7;;;4.7;;
53674;SDS011;39574;50.534;8.500;2023-02-28T07:52:02;7.5;;;4.3;;
53674;SDS011;39574;50.534;8.500;2023-02-28T07:56:59;7.0;;;4.0;;
53674;SDS011;39574;50.534;8.500;2023-02-28T08:01:58;6.8;;;3.9;;
53674;SDS011;39574;50.534;8.500;2023-02-28T08:06:56;7.0;;;4.2;;
53674;SDS011;39574;50.534;8.500;2023-02-28T08:11:55;6.7;;;4.1;;
53674;SDS011;39574;50.534;8.500;2023-02-28T08:16:54;6.6;;;3.9;;
53674;SDS011;39574;50.534;8.500;2023-02-28T08:21:52;6.5;;;3.7;;
53674;SDS011;39574;50.534;8.500;2023-02-28T08:26:50;6.2;;;3.5;;
53674;SDS011;39574;50.534;8.500;2023-02-28T08:31:49;6.0;;;3.6;;
53674;SDS011;39574;50.534;8.500;2023-02-28T08:36:47;6.1;;;3.6;;
53674;SDS011;39574;50.534;8.500;2023-02-28T08:41:46;7.0;;;4.0;;
53674;SDS011;39574;50.534;8.500;2023-02-28T08:46:45;6.8;;;4.1;;
53674;SDS011;39574;50.534;8.500;2023-02-28T08:51:44;6.9;;;4.2;;
53674;SDS011;39574;50.534;8.500;2023-02-28T08:56:42;6.4;;;4.0;;
53674;SDS011;39574;50.534;8.500;2023-02-28T09:01:41;5.8;;;3.9;;
53674;SDS011;39574;50.534;8.500;2023-02-28T09:06:40;5.6;;;3.7;;
53674;SDS011;39574;50.534;8.500;2023-02-28T09:11:38;5.6;;;3.5;;
53674;SDS011;39574;50.534;8.500;2023-02-28T09:16:41;5.7;;;3.5;;
53674;SDS011;39574;50.534;8.500;2023-02-28T09:21:35;6.5;;;3.9;;
53674;SDS011;39574;50.534;8.500;2023-02-28T09:26:35;6.0;;;3.8;;
53674;SDS011;39574;50.534;8.500;2023-02-28T09:36:31;6.5;;;3.9;;
53674;SDS011;39574;50.534;8.500;2023-02-28T09:41:32;7.1;;;4.0;;
53674;SDS011;39574;50.534;8.500;2023-02-28T09:51:30;6.2;;;3.7;;
53674;SDS011;39574;50.534;8.500;2023-02-28T09:56:27;6.4;;;3.4;;
53674;SDS011;39574;50.534;8.500;2023-02-28T10:01:27;5.6;;;3.2;;
53674;SDS011;39574;50.534;8.500;2023-02-28T10:06:26;4.8;;;3.0;;
53674;SDS011;39574;50.534;8.500;2023-02-28T10:11:22;4.8;;;3.0;;
53674;SDS011;39574;50.534;8.500;2023-02-28T10:16:22;4.9;;;3.2;;
53674;SDS011;39574;50.534;8.500;2023-02-28T10:21:21;4.8;;;3.3;;
53674;SDS011;39574;50.534;8.500;2023-02-28T10:26:18;4.9;;;3.3;;
53674;SDS011;39574;50.534;8.500;2023-02-28T10:31:18;5.0;;;3.3;;
53674;SDS011;39574;50.534;8.500;2023-02-28T10:41:15;5.0;;;3.3;;
53674;SDS011;39574;50.534;8.500;2023-02-28T10:46:14;4.8;;;3.2;;
53674;SDS011;39574;50.534;8.500;2023-02-28T10:51:13;5.1;;;3.3;;
53674;SDS011;39574;50.534;8.500;2023-02-28T10:56:14;5.2;;;3.4;;
53674;SDS011;39574;50.534;8.500;2023-02-28T11:01:12;5.2;;;3.5;;
53674;SDS011;39574;50.534;8.500;2023-02-28T11:06:12;5.1;;;3.7;;
53674;SDS011;39574;50.534;8.500;2023-02-28T11:11:08;5.0;;;3.7;;
53674;SDS011;39574;50.534;8.500;2023-02-28T11:16:07;5.0;;;3.6;;
53674;SDS011;39574;50.534;8.500;2023-02-28T11:21:05;5.3;;;3.6;;
53674;SDS011;39574;50.534;8.500;2023-02-28T11:26:04;5.1;;;3.7;;
53674;SDS011;39574;50.534;8.500;2023-02-28T11:31:04;5.0;;;3.7;;
53674;SDS011;39574;50.534;8.500;2023-02-28T11:36:03;5.5;;;3.7;;
53674;SDS011;39574;50.534;8.500;2023-02-28T11:41:05;6.0;;;4.0;;
53674;SDS011;39574;50.534;8.500;2023-02-28T11:46:03;6.5;;;4.3;;
53674;SDS011;39574;50.534;8.500;2023-02-28T11:55:58;6.5;;;4.4;;
53674;SDS011;39574;50.534;8.500;2023-02-28T12:00:59;6.6;;;4.6;;
53674;SDS011;39574;50.534;8.500;2023-02-28T12:05:57;7.1;;;4.7;;
53674;SDS011;39574;50.534;8.500;2023-02-28T12:10:57;6.8;;;4.5;;
53674;SDS011;39574;50.534;8.500;2023-02-28T12:20:52;6.8;;;4.6;;
53674;SDS011;39574;50.534;8.500;2023-02-28T12:25:51;7.2;;;4.6;;
53674;SDS011;39574;50.534;8.500;2023-02-28T12:30:49;7.6;;;4.8;;
53674;SDS011;39574;50.534;8.500;2023-02-28T12:35:47;7.3;;;4.8;;
53674;SDS011;39574;50.534;8.500;2023-02-28T12:40:47;6.8;;;4.8;;
53674;SDS011;39574;50.534;8.500;2023-02-28T12:45:45;6.6;;;4.7;;
53674;SDS011;39574;50.534;8.500;2023-02-28T12:55:43;6.8;;;4.8;;
53674;SDS011;39574;50.534;8.500;2023-02-28T13:00:47;7.0;;;4.8;;
53674;SDS011;39574;50.534;8.500;2023-02-28T13:10:39;6.9;;;4.8;;
53674;SDS011;39574;50.534;8.500;2023-02-28T13:15:37;7.2;;;4.8;;
53674;SDS011;39574;50.534;8.500;2023-02-28T13:20:37;7.2;;;4.7;;
53674;SDS011;39574;50.534;8.500;2023-02-28T13:25:50;7.5;;;4.6;;
53674;SDS011;39574;50.534;8.500;2023-02-28T13:31:05;6.8;;;4.4;;
53674;SDS011;39574;50.534;8.500;2023-02-28T13:35:36;6.4;;;4.4;;
53674;SDS011;39574;50.534;8.500;2023-02-28T13:40:32;6.6;;;4.4;;
53674;SDS011;39574;50.534;8.500;2023-02-28T13:45:30;7.0;;;4.6;;
53674;SDS011;39574;50.534;8.500;2023-02-28T13:50:31;6.9;;;4.7;;
53674;SDS011;39574;50.534;8.500;2023-02-28T13:55:28;6.8;;;4.5;;
53674;SDS011;39574;50.534;8.500;2023-02-28T14:00:31;6.7;;;4.6;;
53674;SDS011;39574;50.534;8.500;2023-02-28T14:05:27;6.3;;;4.5;;
53674;SDS011;39574;50.534;8.500;2023-02-28T14:10:26;6.5;;;4.6;;
53674;SDS011;39574;50.534;8.500;2023-02-28T14:15:39;5.9;;;4.4;;
53674;SDS011;39574;50.534;8.500;2023-02-28T14:20:23;6.0;;;4.4;;
53674;SDS011;39574;50.534;8.500;2023-02-28T14:25:22;6.1;;;4.5;;
53674;SDS011;39574;50.534;8.500;2023-02-28T14:30:55;6.4;;;4.7;;
53674;SDS011;39574;50.534;8.500;2023-02-28T14:35:35;6.9;;;4.8;;
53674;SDS011;39574;50.534;8.500;2023-02-28T14:40:19;7.4;;;4.9;;
53674;SDS011;39574;50.534;8.500;2023-02-28T14:45:18;7.7;;;5.0;;
53674;SDS011;39574;50.534;8.500;2023-02-28T14:50:17;7.6;;;5.0;;
53674;SDS011;39574;50.534;8.500;2023-02-28T14:55:17;7.4;;;5.0;;
53674;SDS011;39574;50.534;8.500;2023-02-28T15:00:15;7.0;;;4.9;;
53674;SDS011;39574;50.534;8.500;2023-02-28T15:05:18;7.6;;;5.2;;
53674;SDS011;39574;50.534;8.500;2023-02-28T15:10:16;7.2;;;5.2;;
53674;SDS011;39574;50.534;8.500;2023-02-28T15:15:14;7.2;;;5.2;;
53674;SDS011;39574;50.534;8.500;2023-02-28T15:20:10;7.3;;;5.2;;
53674;SDS011;39574;50.534;8.500;2023-02-28T15:25:09;7.0;;;5.0;;
53674;SDS011;39574;50.534;8.500;2023-02-28T15:30:11;7.0;;;5.0;;
53674;SDS011;39574;50.534;8.500;2023-02-28T15:35:20;7.5;;;5.3;;
53674;SDS011;39574;50.534;8.500;2023-02-28T15:40:11;7.8;;;5.3;;
53674;SDS011;39574;50.534;8.500;2023-02-28T15:45:05;7.6;;;5.2;;
53674;SDS011;39574;50.534;8.500;2023-02-28T15:50:08;7.3;;;5.0;;
53674;SDS011;39574;50.534;8.500;2023-02-28T15:55:08;8.0;;;4.9;;
53674;SDS011;39574;50.534;8.500;2023-02-28T16:00:04;7.8;;;5.0;;
53674;SDS011;39574;50.534;8.500;2023-02-28T16:05:12;7.3;;;4.9;;
53674;SDS011;39574;50.534;8.500;2023-02-28T16:10:01;8.3;;;5.0;;
53674;SDS011;39574;50.534;8.500;2023-02-28T16:15:00;8.8;;;5.3;;
53674;SDS011;39574;50.534;8.500;2023-02-28T16:20:05;8.5;;;5.4;;
53674;SDS011;39574;50.534;8.500;2023-02-28T16:24:57;9.4;;;5.5;;
53674;SDS011;39574;50.534;8.500;2023-02-28T16:34:54;9.2;;;5.3;;
53674;SDS011;39574;50.534;8.500;2023-02-28T16:39:53;8.8;;;5.2;;
53674;SDS011;39574;50.534;8.500;2023-02-28T16:44:52;8.2;;;5.2;;
53674;SDS011;39574;50.534;8.500;2023-02-28T16:49:51;7.6;;;4.9;;
53674;SDS011;39574;50.534;8.500;2023-02-28T16:54:50;7.6;;;4.8;;
53674;SDS011;39574;50.534;8.500;2023-02-28T16:59:48;7.8;;;4.7;;
53674;SDS011;39574;50.534;8.500;2023-02-28T17:04:47;7.6;;;4.9;;
53674;SDS011;39574;50.534;8.500;2023-02-28T17:09:46;7.4;;;4.9;;
53674;SDS011;39574;50.534;8.500;2023-02-28T17:14:44;8.0;;;5.0;;
53674;SDS011;39574;50.534;8.500;2023-02-28T17:24:42;9.5;;;6.0;;
53674;SDS011;39574;50.534;8.500;2023-02-28T17:29:41;10.4;;;6.6;;
53674;SDS011;39574;50.534;8.500;2023-02-28T17:34:40;10.3;;;6.7;;
53674;SDS011;39574;50.534;8.500;2023-02-28T17:39:38;10.4;;;6.7;;
53674;SDS011;39574;50.534;8.500;2023-02-28T17:44:37;9.7;;;6.3;;
53674;SDS011;39574;50.534;8.500;2023-02-28T17:49:36;11.7;;;7.1;;
53674;SDS011;39574;50.534;8.500;2023-02-28T17:54:34;11.0;;;6.8;;
53674;SDS011;39574;50.534;8.500;2023-02-28T17:59:33;10.7;;;6.5;;
53674;SDS011;39574;50.534;8.500;2023-02-28T18:04:32;10.6;;;6.4;;
53674;SDS011;39574;50.534;8.500;2023-02-28T18:09:31;10.8;;;6.4;;
53674;SDS011;39574;50.534;8.500;2023-02-28T18:14:30;9.8;;;6.3;;
53674;SDS011;39574;50.534;8.500;2023-02-28T18:19:28;8.8;;;6.0;;
53674;SDS011;39574;50.534;8.500;2023-02-28T18:24:27;8.6;;;5.9;;
53674;SDS011;39574;50.534;8.500;2023-02-28T18:29:26;8.1;;;5.6;;
53674;SDS011;39574;50.534;8.500;2023-02-28T18:34:25;8.7;;;5.6;;
53674;SDS011;39574;50.534;8.500;2023-02-28T18:39:23;9.2;;;5.7;;
53674;SDS011;39574;50.534;8.500;2023-02-28T18:44:22;9.9;;;6.1;;
53674;SDS011;39574;50.534;8.500;2023-02-28T18:49:20;10.1;;;6.4;;
53674;SDS011;39574;50.534;8.500;2023-02-28T18:54:19;10.0;;;6.2;;
53674;SDS011;39574;50.534;8.500;2023-02-28T18:59:18;10.3;;;6.3;;
53674;SDS011;39574;50.534;8.500;2023-02-28T19:04:17;11.7;;;7.1;;
53674;SDS011;39574;50.534;8.500;2023-02-28T19:09:15;13.6;;;8.5;;
53674;SDS011;39574;50.534;8.500;2023-02-28T19:14:14;16.3;;;10.5;;
53674;SDS011;39574;50.534;8.500;2023-02-28T19:19:13;15.9;;;10.6;;
53674;SDS011;39574;50.534;8.500;2023-02-28T19:24:11;15.5;;;10.6;;
53674;SDS011;39574;50.534;8.500;2023-02-28T19:29:10;17.4;;;11.9;;
53674;SDS011;39574;50.534;8.500;2023-02-28T19:34:09;17.0;;;11.3;;
53674;SDS011;39574;50.534;8.500;2023-02-28T19:39:08;16.4;;;10.7;;
53674;SDS011;39574;50.534;8.500;2023-02-28T19:44:07;16.6;;;10.5;;
53674;SDS011;39574;50.534;8.500;2023-02-28T19:49:05;17.0;;;10.8;;
53674;SDS011;39574;50.534;8.500;2023-02-28T19:54:04;16.8;;;10.2;;
53674;SDS011;39574;50.534;8.500;2023-02-28T19:59:02;15.3;;;9.6;;
53674;SDS011;39574;50.534;8.500;2023-02-28T20:04:01;14.2;;;9.1;;
53674;SDS011;39574;50.534;8.500;2023-02-28T20:09:00;13.7;;;8.5;;
53674;SDS011;39574;50.534;8.500;2023-02-28T20:13:58;12.2;;;8.2;;
53674;SDS011;39574;50.534;8.500;2023-02-28T20:18:57;12.7;;;8.1;;
53674;SDS011;39574;50.534;8.500;2023-02-28T20:23:56;12.9;;;8.2;;
53674;SDS011;39574;50.534;8.500;2023-02-28T20:28:54;13.3;;;8.3;;
53674;SDS011;39574;50.534;8.500;2023-02-28T20:33:53;13.3;;;8.2;;
53674;SDS011;39574;50.534;8.500;2023-02-28T20:38:52;13.6;;;8.5;;
53674;SDS011;39574;50.534;8.500;2023-02-28T20:43:52;13.4;;;8.6;;
53674;SDS011;39574;50.534;8.500;2023-02-28T20:48:49;12.8;;;8.3;;
53674;SDS011;39574;50.534;8.500;2023-02-28T20:53:48;13.1;;;8.4;;
53674;SDS011;39574;50.534;8.500;2023-02-28T20:58:47;10.8;;;7.8;;
53674;SDS011;39574;50.534;8.500;2023-02-28T21:03:46;12.4;;;8.0;;
53674;SDS011;39574;50.534;8.500;2023-02-28T21:08:44;12.5;;;8.2;;
53674;SDS011;39574;50.534;8.500;2023-02-28T21:13:42;12.5;;;8.3;;
53674;SDS011;39574;50.534;8.500;2023-02-28T21:18:41;12.8;;;8.4;;
53674;SDS011;39574;50.534;8.500;2023-02-28T21:23:39;13.7;;;8.8;;
53674;SDS011;39574;50.534;8.500;2023-02-28T21:28:39;15.2;;;9.3;;
53674;SDS011;39574;50.534;8.500;2023-02-28T21:33:37;16.1;;;9.5;;
53674;SDS011;39574;50.534;8.500;2023-02-28T21:38:36;16.1;;;9.2;;
53674;SDS011;39574;50.534;8.500;2023-02-28T21:43:34;15.8;;;9.1;;
53674;SDS011;39574;50.534;8.500;2023-02-28T21:48:33;15.3;;;8.9;;
53674;SDS011;39574;50.534;8.500;2023-02-28T21:53:32;15.8;;;9.2;;
53674;SDS011;39574;50.534;8.500;2023-02-28T21:58:30;14.9;;;9.2;;
53674;SDS011;39574;50.534;8.500;2023-02-28T22:03:28;14.2;;;9.2;;
53674;SDS011;39574;50.534;8.500;2023-02-28T22:08:27;14.4;;;9.3;;
53674;SDS011;39574;50.534;8.500;2023-02-28T22:13:26;15.0;;;9.2;;
53674;SDS011;39574;50.534;8.500;2023-02-28T22:18:24;15.0;;;9.3;;
53674;SDS011;39574;50.534;8.500;2023-02-28T22:23:23;15.3;;;9.4;;
53674;SDS011;39574;50.534;8.500;2023-02-28T22:28:22;15.4;;;9.6;;
53674;SDS011;39574;50.534;8.500;2023-02-28T22:33:20;17.1;;;10.1;;
53674;SDS011;39574;50.534;8.500;2023-02-28T22:38:19;17.0;;;10.0;;
53674;SDS011;39574;50.534;8.500;2023-02-28T22:43:18;17.0;;;10.0;;
53674;SDS011;39574;50.534;8.500;2023-02-28T22:48:16;16.9;;;10.3;;
53674;SDS011;39574;50.534;8.500;2023-02-28T22:53:15;16.5;;;10.3;;
53674;SDS011;39574;50.534;8.500;2023-02-28T22:58:13;16.8;;;10.4;;
53674;SDS011;39574;50.534;8.500;2023-02-28T23:03:12;16.8;;;10.4;;
53674;SDS011;39574;50.534;8.500;2023-02-28T23:08:11;16.9;;;10.3;;
53674;SDS011;39574;50.534;8.500;2023-02-28T23:13:09;16.3;;;10.2;;
53674;SDS011;39574;50.534;8.500;2023-02-28T23:18:08;15.7;;;9.8;;
53674;SDS011;39574;50.534;8.500;2023-02-28T23:23:06;15.8;;;9.7;;
53674;SDS011;39574;50.534;8.500;2023-02-28T23:28:05;15.3;;;9.7;;
53674;SDS011;39574;50.534;8.500;2023-02-28T23:33:04;15.4;;;9.8;;
53674;SDS011;39574;50.534;8.500;2023-02-28T23:38:02;15.3;;;10.0;;
53674;SDS011;39574;50.534;8.500;2023-02-28T23:43:01;15.2;;;9.8;;
53674;SDS011;39574;50.534;8.500;2023-02-28T23:47:59;16.0;;;9.6;;
53674;SDS011;39574;50.534;8.500;2023-02-28T23:52:58;16.7;;;9.8;;
53674;SDS011;39574;50.534;8.500;2023-02-28T23:57:57;16.0;;;9.7;;
